sensor_id;sensor_type;location;lat;lon;timestamp;temperature;humidity
10468;DHT22;5281;48.878;9.394;2024-03-02T00:00:34;7.80;99.90
10468;DHT22;5281;48.878;9.394;2024-03-02T00:03:02;7.80;99.90
10468;DHT22;5281;48.878;9.394;2024-03-02T00:05:29;7.90;99.90
10468;DHT22;5281;48.878;9.394;2024-03-02T00:07:57;7.90;99.90
10468;DHT22;5281;48.878;9.394;2024-03-02T00:10:26;8.00;99.90
10468;DHT22;5281;48.878;9.394;2024-03-02T00:12:55;7.90;99.90
10468;DHT22;5281;48.878;9.394;2024-03-02T00:15:40;7.90;99.90
10468;DHT22;5281;48.878;9.394;2024-03-02T00:18:08;8.00;99.90
10468;DHT22;5281;48.878;9.394;2024-03-02T00:20:34;7.90;99.90
10468;DHT22;5281;48.878;9.394;2024-03-02T00:23:04;7.80;99.90
10468;DHT22;5281;48.878;9.394;2024-03-02T00:25:37;7.80;99.90
10468;DHT22;5281;48.878;9.394;2024-03-02T00:28:04;7.70;99.90
10468;DHT22;5281;48.878;9.394;2024-03-02T00:30:46;7.60;99.90
10468;DHT22;5281;48.878;9.394;2024-03-02T00:33:17;7.50;99.90
10468;DHT22;5281;48.878;9.394;2024-03-02T00:35:45;7.50;99.90
10468;DHT22;5281;48.878;9.394;2024-03-02T00:38:14;7.60;99.90
10468;DHT22;5281;48.878;9.394;2024-03-02T00:40:41;7.60;99.90
10468;DHT22;5281;48.878;9.394;2024-03-02T00:43:19;7.70;99.90
10468;DHT22;5281;48.878;9.394;2024-03-02T00:45:49;7.70;99.90
10468;DHT22;5281;48.878;9.394;2024-03-02T00:48:16;7.80;99.90
10468;DHT22;5281;48.878;9.394;2024-03-02T00:50:43;7.70;99.90
10468;DHT22;5281;48.878;9.394;2024-03-02T00:53:13;7.70;99.90
10468;DHT22;5281;48.878;9.394;2024-03-02T00:55:40;7.70;99.90
10468;DHT22;5281;48.878;9.394;2024-03-02T00:58:09;7.70;99.90
10468;DHT22;5281;48.878;9.394;2024-03-02T01:00:36;7.70;99.90
10468;DHT22;5281;48.878;9.394;2024-03-02T01:03:03;7.70;99.90
10468;DHT22;5281;48.878;9.394;2024-03-02T01:05:30;7.70;99.90
10468;DHT22;5281;48.878;9.394;2024-03-02T01:07:57;7.70;99.90
10468;DHT22;5281;48.878;9.394;2024-03-02T01:10:25;7.70;99.90
10468;DHT22;5281;48.878;9.394;2024-03-02T01:12:52;7.60;99.90
10468;DHT22;5281;48.878;9.394;2024-03-02T01:15:18;7.60;99.90
10468;DHT22;5281;48.878;9.394;2024-03-02T01:17:46;7.60;99.90
10468;DHT22;5281;48.878;9.394;2024-03-02T01:20:13;7.60;99.90
10468;DHT22;5281;48.878;9.394;2024-03-02T01:22:39;7.70;99.90
10468;DHT22;5281;48.878;9.394;2024-03-02T01:25:06;7.60;99.90
10468;DHT22;5281;48.878;9.394;2024-03-02T01:27:36;7.40;99.90
10468;DHT22;5281;48.878;9.394;2024-03-02T01:30:02;7.40;99.90
10468;DHT22;5281;48.878;9.394;2024-03-02T01:32:29;7.30;99.90
10468;DHT22;5281;48.878;9.394;2024-03-02T01:34:56;7.30;99.90
10468;DHT22;5281;48.878;9.394;2024-03-02T01:37:22;7.30;99.90
10468;DHT22;5281;48.878;9.394;2024-03-02T01:39:49;7.40;99.90
10468;DHT22;5281;48.878;9.394;2024-03-02T01:42:16;7.40;99.90
10468;DHT22;5281;48.878;9.394;2024-03-02T01:44:44;7.50;99.90
10468;DHT22;5281;48.878;9.394;2024-03-02T01:47:10;7.50;99.90
10468;DHT22;5281;48.878;9.394;2024-03-02T01:49:37;7.50;99.90
10468;DHT22;5281;48.878;9.394;2024-03-02T01:52:06;7.50;99.90
10468;DHT22;5281;48.878;9.394;2024-03-02T01:54:33;7.60;99.90
10468;DHT22;5281;48.878;9.394;2024-03-02T01:57:00;7.60;99.90
10468;DHT22;5281;48.878;9.394;2024-03-02T01:59:27;7.70;99.90
10468;DHT22;5281;48.878;9.394;2024-03-02T02:01:55;7.70;99.90
10468;DHT22;5281;48.878;9.394;2024-03-02T02:04:21;7.70;99.90
10468;DHT22;5281;48.878;9.394;2024-03-02T02:06:52;7.70;99.90
10468;DHT22;5281;48.878;9.394;2024-03-02T02:09:19;7.70;99.90
10468;DHT22;5281;48.878;9.394;2024-03-02T02:11:46;7.70;99.90
10468;DHT22;5281;48.878;9.394;2024-03-02T02:14:12;7.60;99.90
10468;DHT22;5281;48.878;9.394;2024-03-02T02:16:39;7.60;99.90
10468;DHT22;5281;48.878;9.394;2024-03-02T02:19:07;7.50;99.90
10468;DHT22;5281;48.878;9.394;2024-03-02T02:21:36;7.40;99.90
10468;DHT22;5281;48.878;9.394;2024-03-02T02:24:03;7.40;99.90
10468;DHT22;5281;48.878;9.394;2024-03-02T02:26:30;7.40;99.90
10468;DHT22;5281;48.878;9.394;2024-03-02T02:28:56;7.40;99.90
10468;DHT22;5281;48.878;9.394;2024-03-02T02:31:23;7.30;99.90
10468;DHT22;5281;48.878;9.394;2024-03-02T02:33:50;7.20;99.90
10468;DHT22;5281;48.878;9.394;2024-03-02T02:36:16;7.20;99.90
10468;DHT22;5281;48.878;9.394;2024-03-02T02:38:46;7.20;99.90
10468;DHT22;5281;48.878;9.394;2024-03-02T02:41:14;7.20;99.90
10468;DHT22;5281;48.878;9.394;2024-03-02T02:43:40;7.10;99.90
10468;DHT22;5281;48.878;9.394;2024-03-02T02:46:07;7.10;99.90
10468;DHT22;5281;48.878;9.394;2024-03-02T02:48:34;7.10;99.90
10468;DHT22;5281;48.878;9.394;2024-03-02T02:51:00;7.00;99.90
10468;DHT22;5281;48.878;9.394;2024-03-02T02:53:27;6.90;99.90
10468;DHT22;5281;48.878;9.394;2024-03-02T02:55:55;6.90;99.90
10468;DHT22;5281;48.878;9.394;2024-03-02T02:58:22;6.90;99.90
10468;DHT22;5281;48.878;9.394;2024-03-02T03:00:49;6.90;99.90
10468;DHT22;5281;48.878;9.394;2024-03-02T03:03:15;6.70;99.90
10468;DHT22;5281;48.878;9.394;2024-03-02T03:05:42;6.60;99.90
10468;DHT22;5281;48.878;9.394;2024-03-02T03:08:09;6.40;99.90
10468;DHT22;5281;48.878;9.394;2024-03-02T03:10:35;6.20;99.90
10468;DHT22;5281;48.878;9.394;2024-03-02T03:13:03;6.10;99.90
10468;DHT22;5281;48.878;9.394;2024-03-02T03:15:34;6.10;99.90
10468;DHT22;5281;48.878;9.394;2024-03-02T03:18:02;6.20;99.90
10468;DHT22;5281;48.878;9.394;2024-03-02T03:20:29;6.20;99.90
10468;DHT22;5281;48.878;9.394;2024-03-02T03:22:56;6.30;99.90
10468;DHT22;5281;48.878;9.394;2024-03-02T03:25:22;6.30;99.90
10468;DHT22;5281;48.878;9.394;2024-03-02T03:27:49;6.40;99.90
10468;DHT22;5281;48.878;9.394;2024-03-02T03:30:19;6.40;99.90
10468;DHT22;5281;48.878;9.394;2024-03-02T03:32:45;6.40;99.90
10468;DHT22;5281;48.878;9.394;2024-03-02T03:35:13;6.30;99.90
10468;DHT22;5281;48.878;9.394;2024-03-02T03:37:40;6.20;99.90
10468;DHT22;5281;48.878;9.394;2024-03-02T03:40:08;6.20;99.90
10468;DHT22;5281;48.878;9.394;2024-03-02T03:42:36;6.20;99.90
10468;DHT22;5281;48.878;9.394;2024-03-02T03:45:03;6.20;99.90
10468;DHT22;5281;48.878;9.394;2024-03-02T03:47:32;6.20;99.90
10468;DHT22;5281;48.878;9.394;2024-03-02T03:49:59;6.10;99.90
10468;DHT22;5281;48.878;9.394;2024-03-02T03:52:26;6.10;99.90
10468;DHT22;5281;48.878;9.394;2024-03-02T03:54:52;6.10;99.90
10468;DHT22;5281;48.878;9.394;2024-03-02T03:57:19;6.20;99.90
10468;DHT22;5281;48.878;9.394;2024-03-02T03:59:46;6.20;99.90
10468;DHT22;5281;48.878;9.394;2024-03-02T04:02:13;6.20;99.90
10468;DHT22;5281;48.878;9.394;2024-03-02T04:04:41;6.10;99.90
10468;DHT22;5281;48.878;9.394;2024-03-02T04:07:07;6.10;99.90
10468;DHT22;5281;48.878;9.394;2024-03-02T04:09:34;6.10;99.90
10468;DHT22;5281;48.878;9.394;2024-03-02T04:12:00;6.00;99.90
10468;DHT22;5281;48.878;9.394;2024-03-02T04:14:27;6.00;99.90
10468;DHT22;5281;48.878;9.394;2024-03-02T04:16:54;5.90;99.90
10468;DHT22;5281;48.878;9.394;2024-03-02T04:19:21;5.90;99.90
10468;DHT22;5281;48.878;9.394;2024-03-02T04:21:49;5.90;99.90
10468;DHT22;5281;48.878;9.394;2024-03-02T04:24:15;5.80;99.90
10468;DHT22;5281;48.878;9.394;2024-03-02T04:26:42;5.70;99.90
10468;DHT22;5281;48.878;9.394;2024-03-02T04:29:09;5.70;99.90
10468;DHT22;5281;48.878;9.394;2024-03-02T04:31:35;5.70;99.90
10468;DHT22;5281;48.878;9.394;2024-03-02T04:34:02;5.70;99.90
10468;DHT22;5281;48.878;9.394;2024-03-02T04:36:28;5.60;99.90
10468;DHT22;5281;48.878;9.394;2024-03-02T04:38:56;5.60;99.90
10468;DHT22;5281;48.878;9.394;2024-03-02T04:41:23;5.50;99.90
10468;DHT22;5281;48.878;9.394;2024-03-02T04:43:50;5.50;99.90
10468;DHT22;5281;48.878;9.394;2024-03-02T04:46:16;5.50;99.90
10468;DHT22;5281;48.878;9.394;2024-03-02T04:48:43;5.50;99.90
10468;DHT22;5281;48.878;9.394;2024-03-02T04:51:10;5.50;99.90
10468;DHT22;5281;48.878;9.394;2024-03-02T04:53:36;5.50;99.90
10468;DHT22;5281;48.878;9.394;2024-03-02T04:56:05;5.50;99.90
10468;DHT22;5281;48.878;9.394;2024-03-02T04:59:05;5.40;99.90
10468;DHT22;5281;48.878;9.394;2024-03-02T05:01:32;5.40;99.90
10468;DHT22;5281;48.878;9.394;2024-03-02T05:03:59;5.40;99.90
10468;DHT22;5281;48.878;9.394;2024-03-02T05:06:26;5.50;99.90
10468;DHT22;5281;48.878;9.394;2024-03-02T05:08:52;5.50;99.90
10468;DHT22;5281;48.878;9.394;2024-03-02T05:11:20;5.50;99.90
10468;DHT22;5281;48.878;9.394;2024-03-02T05:14:18;5.50;99.90
10468;DHT22;5281;48.878;9.394;2024-03-02T05:16:45;5.40;99.90
10468;DHT22;5281;48.878;9.394;2024-03-02T05:19:11;5.40;99.90
10468;DHT22;5281;48.878;9.394;2024-03-02T05:21:38;5.40;99.90
10468;DHT22;5281;48.878;9.394;2024-03-02T05:24:05;5.40;99.90
10468;DHT22;5281;48.878;9.394;2024-03-02T05:26:33;5.40;99.90
10468;DHT22;5281;48.878;9.394;2024-03-02T05:29:00;5.40;99.90
10468;DHT22;5281;48.878;9.394;2024-03-02T05:31:26;5.50;99.90
10468;DHT22;5281;48.878;9.394;2024-03-02T05:33:53;5.50;99.90
10468;DHT22;5281;48.878;9.394;2024-03-02T05:36:19;5.50;99.90
10468;DHT22;5281;48.878;9.394;2024-03-02T05:38:47;5.50;99.90
10468;DHT22;5281;48.878;9.394;2024-03-02T05:41:13;5.40;99.90
10468;DHT22;5281;48.878;9.394;2024-03-02T05:43:41;5.40;99.90
10468;DHT22;5281;48.878;9.394;2024-03-02T05:46:08;5.40;99.90
10468;DHT22;5281;48.878;9.394;2024-03-02T05:48:35;5.40;99.90
10468;DHT22;5281;48.878;9.394;2024-03-02T05:51:01;5.40;99.90
10468;DHT22;5281;48.878;9.394;2024-03-02T05:53:28;5.40;99.90
10468;DHT22;5281;48.878;9.394;2024-03-02T05:55:55;5.50;99.90
10468;DHT22;5281;48.878;9.394;2024-03-02T05:58:22;5.50;99.90
10468;DHT22;5281;48.878;9.394;2024-03-02T06:01:04;5.60;99.90
10468;DHT22;5281;48.878;9.394;2024-03-02T06:03:31;5.50;99.90
10468;DHT22;5281;48.878;9.394;2024-03-02T06:05:58;5.50;99.90
10468;DHT22;5281;48.878;9.394;2024-03-02T06:08:25;5.50;99.90
10468;DHT22;5281;48.878;9.394;2024-03-02T06:10:52;5.60;99.90
10468;DHT22;5281;48.878;9.394;2024-03-02T06:13:18;5.70;99.90
10468;DHT22;5281;48.878;9.394;2024-03-02T06:15:45;5.70;99.90
10468;DHT22;5281;48.878;9.394;2024-03-02T06:18:13;5.70;99.90
10468;DHT22;5281;48.878;9.394;2024-03-02T06:20:40;5.80;99.90
10468;DHT22;5281;48.878;9.394;2024-03-02T06:23:06;5.90;99.90
10468;DHT22;5281;48.878;9.394;2024-03-02T06:25:33;6.00;99.90
10468;DHT22;5281;48.878;9.394;2024-03-02T06:28:00;6.00;99.90
10468;DHT22;5281;48.878;9.394;2024-03-02T06:30:26;6.10;99.90
10468;DHT22;5281;48.878;9.394;2024-03-02T06:32:53;6.20;99.90
10468;DHT22;5281;48.878;9.394;2024-03-02T06:35:21;6.20;99.90
10468;DHT22;5281;48.878;9.394;2024-03-02T06:37:48;6.20;99.90
10468;DHT22;5281;48.878;9.394;2024-03-02T06:40:15;6.20;99.90
10468;DHT22;5281;48.878;9.394;2024-03-02T06:42:42;6.30;99.90
10468;DHT22;5281;48.878;9.394;2024-03-02T06:45:08;6.30;99.90
10468;DHT22;5281;48.878;9.394;2024-03-02T06:47:35;6.40;99.90
10468;DHT22;5281;48.878;9.394;2024-03-02T06:50:02;6.40;99.90
10468;DHT22;5281;48.878;9.394;2024-03-02T06:52:30;6.40;99.90
10468;DHT22;5281;48.878;9.394;2024-03-02T06:54:57;6.40;99.90
10468;DHT22;5281;48.878;9.394;2024-03-02T06:57:23;6.40;99.90
10468;DHT22;5281;48.878;9.394;2024-03-02T06:59:50;6.40;99.90
10468;DHT22;5281;48.878;9.394;2024-03-02T07:02:19;6.50;99.90
10468;DHT22;5281;48.878;9.394;2024-03-02T07:04:46;6.50;99.90
10468;DHT22;5281;48.878;9.394;2024-03-02T07:07:13;6.60;99.90
10468;DHT22;5281;48.878;9.394;2024-03-02T07:09:41;6.70;99.90
10468;DHT22;5281;48.878;9.394;2024-03-02T07:12:08;6.70;99.90
10468;DHT22;5281;48.878;9.394;2024-03-02T07:14:35;6.80;99.90
10468;DHT22;5281;48.878;9.394;2024-03-02T07:17:19;6.90;99.90
10468;DHT22;5281;48.878;9.394;2024-03-02T07:19:45;7.00;99.90
10468;DHT22;5281;48.878;9.394;2024-03-02T07:22:12;7.20;99.90
10468;DHT22;5281;48.878;9.394;2024-03-02T07:24:41;7.40;99.90
10468;DHT22;5281;48.878;9.394;2024-03-02T07:27:08;7.60;99.90
10468;DHT22;5281;48.878;9.394;2024-03-02T07:29:35;7.80;99.90
10468;DHT22;5281;48.878;9.394;2024-03-02T07:32:02;7.90;99.90
10468;DHT22;5281;48.878;9.394;2024-03-02T07:34:29;8.20;99.90
10468;DHT22;5281;48.878;9.394;2024-03-02T07:36:56;8.50;99.90
10468;DHT22;5281;48.878;9.394;2024-03-02T07:39:23;8.80;99.90
10468;DHT22;5281;48.878;9.394;2024-03-02T07:41:51;9.30;99.90
10468;DHT22;5281;48.878;9.394;2024-03-02T07:44:18;9.90;99.90
10468;DHT22;5281;48.878;9.394;2024-03-02T07:46:46;10.40;99.90
10468;DHT22;5281;48.878;9.394;2024-03-02T07:49:13;10.70;99.90
10468;DHT22;5281;48.878;9.394;2024-03-02T07:51:40;11.00;99.90
10468;DHT22;5281;48.878;9.394;2024-03-02T07:54:06;11.20;99.90
10468;DHT22;5281;48.878;9.394;2024-03-02T07:56:33;11.50;99.90
10468;DHT22;5281;48.878;9.394;2024-03-02T07:59:02;11.60;99.90
10468;DHT22;5281;48.878;9.394;2024-03-02T08:01:29;11.70;99.90
10468;DHT22;5281;48.878;9.394;2024-03-02T08:03:56;11.80;99.90
10468;DHT22;5281;48.878;9.394;2024-03-02T08:06:24;11.80;99.90
10468;DHT22;5281;48.878;9.394;2024-03-02T08:08:53;11.80;99.90
10468;DHT22;5281;48.878;9.394;2024-03-02T08:11:20;11.90;99.90
10468;DHT22;5281;48.878;9.394;2024-03-02T08:13:46;11.80;99.90
10468;DHT22;5281;48.878;9.394;2024-03-02T08:16:15;11.70;99.90
10468;DHT22;5281;48.878;9.394;2024-03-02T08:18:42;11.60;99.90
10468;DHT22;5281;48.878;9.394;2024-03-02T08:21:09;11.60;99.90
10468;DHT22;5281;48.878;9.394;2024-03-02T08:23:36;11.60;99.90
10468;DHT22;5281;48.878;9.394;2024-03-02T08:26:03;11.60;99.90
10468;DHT22;5281;48.878;9.394;2024-03-02T08:28:30;11.50;99.90
10468;DHT22;5281;48.878;9.394;2024-03-02T08:30:57;11.50;99.90
10468;DHT22;5281;48.878;9.394;2024-03-02T08:33:25;11.50;99.90
10468;DHT22;5281;48.878;9.394;2024-03-02T08:35:52;11.40;99.90
10468;DHT22;5281;48.878;9.394;2024-03-02T08:38:18;11.40;99.90
10468;DHT22;5281;48.878;9.394;2024-03-02T08:40:45;11.30;99.90
10468;DHT22;5281;48.878;9.394;2024-03-02T08:43:12;11.30;99.90
10468;DHT22;5281;48.878;9.394;2024-03-02T08:45:38;11.30;99.90
10468;DHT22;5281;48.878;9.394;2024-03-02T08:48:06;11.40;99.90
10468;DHT22;5281;48.878;9.394;2024-03-02T08:50:35;11.30;99.90
10468;DHT22;5281;48.878;9.394;2024-03-02T08:53:00;11.40;99.90
10468;DHT22;5281;48.878;9.394;2024-03-02T08:55:27;11.40;99.90
10468;DHT22;5281;48.878;9.394;2024-03-02T08:57:54;11.50;99.90
10468;DHT22;5281;48.878;9.394;2024-03-02T09:00:21;11.50;99.90
10468;DHT22;5281;48.878;9.394;2024-03-02T09:02:48;11.60;99.90
10468;DHT22;5281;48.878;9.394;2024-03-02T09:05:15;11.50;99.90
10468;DHT22;5281;48.878;9.394;2024-03-02T09:07:43;11.60;99.90
10468;DHT22;5281;48.878;9.394;2024-03-02T09:10:10;11.60;99.90
10468;DHT22;5281;48.878;9.394;2024-03-02T09:12:37;11.70;99.90
10468;DHT22;5281;48.878;9.394;2024-03-02T09:15:05;11.70;99.90
10468;DHT22;5281;48.878;9.394;2024-03-02T09:17:32;11.60;99.90
10468;DHT22;5281;48.878;9.394;2024-03-02T09:19:59;11.60;99.90
10468;DHT22;5281;48.878;9.394;2024-03-02T09:22:26;11.50;99.90
10468;DHT22;5281;48.878;9.394;2024-03-02T09:24:54;11.60;99.90
10468;DHT22;5281;48.878;9.394;2024-03-02T09:27:20;11.50;99.90
10468;DHT22;5281;48.878;9.394;2024-03-02T09:29:47;11.50;99.90
10468;DHT22;5281;48.878;9.394;2024-03-02T09:32:15;11.40;99.90
10468;DHT22;5281;48.878;9.394;2024-03-02T09:34:42;11.20;99.90
10468;DHT22;5281;48.878;9.394;2024-03-02T09:37:09;11.40;99.90
10468;DHT22;5281;48.878;9.394;2024-03-02T09:39:36;11.40;99.90
10468;DHT22;5281;48.878;9.394;2024-03-02T09:42:05;11.50;99.90
10468;DHT22;5281;48.878;9.394;2024-03-02T09:47:09;11.70;99.90
10468;DHT22;5281;48.878;9.394;2024-03-02T09:49:36;11.90;99.90
10468;DHT22;5281;48.878;9.394;2024-03-02T09:52:03;12.00;99.90
10468;DHT22;5281;48.878;9.394;2024-03-02T09:54:31;12.10;99.90
10468;DHT22;5281;48.878;9.394;2024-03-02T09:56:57;12.20;99.90
10468;DHT22;5281;48.878;9.394;2024-03-02T09:59:25;12.40;99.90
10468;DHT22;5281;48.878;9.394;2024-03-02T10:01:57;12.50;99.90
10468;DHT22;5281;48.878;9.394;2024-03-02T10:04:25;12.70;99.90
10468;DHT22;5281;48.878;9.394;2024-03-02T10:07:09;12.70;99.90
10468;DHT22;5281;48.878;9.394;2024-03-02T10:09:37;12.80;99.90
10468;DHT22;5281;48.878;9.394;2024-03-02T10:12:04;13.10;99.90
10468;DHT22;5281;48.878;9.394;2024-03-02T10:14:33;13.20;99.90
10468;DHT22;5281;48.878;9.394;2024-03-02T10:17:02;13.30;99.90
10468;DHT22;5281;48.878;9.394;2024-03-02T10:19:30;13.20;99.90
10468;DHT22;5281;48.878;9.394;2024-03-02T10:21:59;13.20;99.90
10468;DHT22;5281;48.878;9.394;2024-03-02T10:24:25;13.30;99.90
10468;DHT22;5281;48.878;9.394;2024-03-02T10:26:52;13.40;99.90
10468;DHT22;5281;48.878;9.394;2024-03-02T10:29:19;13.60;99.90
10468;DHT22;5281;48.878;9.394;2024-03-02T10:31:47;13.70;99.90
10468;DHT22;5281;48.878;9.394;2024-03-02T10:34:14;13.90;99.90
10468;DHT22;5281;48.878;9.394;2024-03-02T10:36:42;13.90;99.90
10468;DHT22;5281;48.878;9.394;2024-03-02T10:39:09;14.10;99.90
10468;DHT22;5281;48.878;9.394;2024-03-02T10:41:37;14.20;99.90
10468;DHT22;5281;48.878;9.394;2024-03-02T10:44:06;14.40;99.90
10468;DHT22;5281;48.878;9.394;2024-03-02T10:46:34;14.50;99.90
10468;DHT22;5281;48.878;9.394;2024-03-02T10:49:03;14.70;99.90
10468;DHT22;5281;48.878;9.394;2024-03-02T10:51:31;14.70;99.90
10468;DHT22;5281;48.878;9.394;2024-03-02T10:53:59;14.80;99.90
10468;DHT22;5281;48.878;9.394;2024-03-02T10:56:29;14.80;99.90
10468;DHT22;5281;48.878;9.394;2024-03-02T10:59:02;14.90;99.90
10468;DHT22;5281;48.878;9.394;2024-03-02T11:01:30;15.00;99.90
10468;DHT22;5281;48.878;9.394;2024-03-02T11:03:58;15.10;99.90
10468;DHT22;5281;48.878;9.394;2024-03-02T11:06:28;15.10;99.90
10468;DHT22;5281;48.878;9.394;2024-03-02T11:09:00;15.10;99.90
10468;DHT22;5281;48.878;9.394;2024-03-02T11:11:37;15.00;99.90
10468;DHT22;5281;48.878;9.394;2024-03-02T11:14:07;15.00;99.90
10468;DHT22;5281;48.878;9.394;2024-03-02T11:16:38;15.10;99.90
10468;DHT22;5281;48.878;9.394;2024-03-02T11:19:09;15.20;99.90
10468;DHT22;5281;48.878;9.394;2024-03-02T11:21:38;15.40;99.90
10468;DHT22;5281;48.878;9.394;2024-03-02T11:24:30;15.40;99.90
10468;DHT22;5281;48.878;9.394;2024-03-02T11:26:59;15.40;99.90
10468;DHT22;5281;48.878;9.394;2024-03-02T11:29:45;15.50;99.90
10468;DHT22;5281;48.878;9.394;2024-03-02T11:32:17;15.50;99.90
10468;DHT22;5281;48.878;9.394;2024-03-02T11:34:46;15.50;99.90
10468;DHT22;5281;48.878;9.394;2024-03-02T11:37:15;15.50;99.90
10468;DHT22;5281;48.878;9.394;2024-03-02T11:39:43;15.50;99.90
10468;DHT22;5281;48.878;9.394;2024-03-02T11:42:11;15.60;99.90
10468;DHT22;5281;48.878;9.394;2024-03-02T11:44:40;15.60;99.90
10468;DHT22;5281;48.878;9.394;2024-03-02T11:47:08;15.80;99.90
10468;DHT22;5281;48.878;9.394;2024-03-02T11:49:37;15.90;99.90
10468;DHT22;5281;48.878;9.394;2024-03-02T11:52:06;16.00;99.90
10468;DHT22;5281;48.878;9.394;2024-03-02T11:54:35;16.10;99.90
10468;DHT22;5281;48.878;9.394;2024-03-02T11:57:05;16.20;99.90
10468;DHT22;5281;48.878;9.394;2024-03-02T11:59:32;16.20;99.90
10468;DHT22;5281;48.878;9.394;2024-03-02T12:01:59;16.20;99.90
10468;DHT22;5281;48.878;9.394;2024-03-02T12:04:26;16.30;99.90
10468;DHT22;5281;48.878;9.394;2024-03-02T12:06:57;16.40;99.90
10468;DHT22;5281;48.878;9.394;2024-03-02T12:09:26;16.50;99.90
10468;DHT22;5281;48.878;9.394;2024-03-02T12:12:04;16.60;99.90
10468;DHT22;5281;48.878;9.394;2024-03-02T12:14:31;16.70;99.90
10468;DHT22;5281;48.878;9.394;2024-03-02T12:16:58;16.70;99.90
10468;DHT22;5281;48.878;9.394;2024-03-02T12:19:25;16.80;99.90
10468;DHT22;5281;48.878;9.394;2024-03-02T12:21:52;16.90;99.90
10468;DHT22;5281;48.878;9.394;2024-03-02T12:24:20;16.90;99.90
10468;DHT22;5281;48.878;9.394;2024-03-02T12:26:47;17.10;99.90
10468;DHT22;5281;48.878;9.394;2024-03-02T12:29:16;17.10;99.90
10468;DHT22;5281;48.878;9.394;2024-03-02T12:31:42;17.10;99.90
10468;DHT22;5281;48.878;9.394;2024-03-02T12:34:12;17.00;99.90
10468;DHT22;5281;48.878;9.394;2024-03-02T12:36:39;16.80;99.90
10468;DHT22;5281;48.878;9.394;2024-03-02T12:39:07;17.00;99.90
10468;DHT22;5281;48.878;9.394;2024-03-02T12:41:36;17.10;99.90
10468;DHT22;5281;48.878;9.394;2024-03-02T12:44:02;17.10;99.90
10468;DHT22;5281;48.878;9.394;2024-03-02T12:46:30;17.30;99.90
10468;DHT22;5281;48.878;9.394;2024-03-02T12:48:57;17.60;99.90
10468;DHT22;5281;48.878;9.394;2024-03-02T12:51:24;17.60;99.90
10468;DHT22;5281;48.878;9.394;2024-03-02T12:53:53;17.70;99.90
10468;DHT22;5281;48.878;9.394;2024-03-02T12:56:20;17.70;99.90
10468;DHT22;5281;48.878;9.394;2024-03-02T12:58:47;17.70;99.90
10468;DHT22;5281;48.878;9.394;2024-03-02T13:01:15;17.80;99.90
10468;DHT22;5281;48.878;9.394;2024-03-02T13:03:48;17.80;99.90
10468;DHT22;5281;48.878;9.394;2024-03-02T13:06:16;17.70;99.90
10468;DHT22;5281;48.878;9.394;2024-03-02T13:08:42;17.70;99.90
10468;DHT22;5281;48.878;9.394;2024-03-02T13:11:09;17.70;99.90
10468;DHT22;5281;48.878;9.394;2024-03-02T13:13:36;17.70;99.90
10468;DHT22;5281;48.878;9.394;2024-03-02T13:16:04;17.70;99.90
10468;DHT22;5281;48.878;9.394;2024-03-02T13:18:33;17.70;99.90
10468;DHT22;5281;48.878;9.394;2024-03-02T13:21:01;17.80;99.90
10468;DHT22;5281;48.878;9.394;2024-03-02T13:23:27;17.80;99.90
10468;DHT22;5281;48.878;9.394;2024-03-02T13:25:56;17.90;99.40
10468;DHT22;5281;48.878;9.394;2024-03-02T13:28:23;17.90;99.40
10468;DHT22;5281;48.878;9.394;2024-03-02T13:30:50;17.90;99.10
10468;DHT22;5281;48.878;9.394;2024-03-02T13:33:17;18.00;98.90
10468;DHT22;5281;48.878;9.394;2024-03-02T13:35:48;18.10;98.50
10468;DHT22;5281;48.878;9.394;2024-03-02T13:38:16;18.20;97.60
10468;DHT22;5281;48.878;9.394;2024-03-02T13:40:43;18.20;97.00
10468;DHT22;5281;48.878;9.394;2024-03-02T13:43:10;18.10;96.90
10468;DHT22;5281;48.878;9.394;2024-03-02T13:45:37;18.10;97.00
10468;DHT22;5281;48.878;9.394;2024-03-02T13:48:04;18.10;96.30
10468;DHT22;5281;48.878;9.394;2024-03-02T13:50:31;18.10;96.10
10468;DHT22;5281;48.878;9.394;2024-03-02T13:52:58;18.10;96.40
10468;DHT22;5281;48.878;9.394;2024-03-02T13:55:26;18.20;94.90
10468;DHT22;5281;48.878;9.394;2024-03-02T13:57:53;18.20;94.50
10468;DHT22;5281;48.878;9.394;2024-03-02T14:00:19;18.20;94.40
10468;DHT22;5281;48.878;9.394;2024-03-02T14:02:46;18.10;94.80
10468;DHT22;5281;48.878;9.394;2024-03-02T14:05:15;18.20;94.40
10468;DHT22;5281;48.878;9.394;2024-03-02T14:07:42;18.20;94.10
10468;DHT22;5281;48.878;9.394;2024-03-02T14:10:09;18.20;94.10
10468;DHT22;5281;48.878;9.394;2024-03-02T14:12:38;18.10;94.10
10468;DHT22;5281;48.878;9.394;2024-03-02T14:15:05;18.00;94.00
10468;DHT22;5281;48.878;9.394;2024-03-02T14:17:32;17.90;94.30
10468;DHT22;5281;48.878;9.394;2024-03-02T14:20:00;18.00;93.70
10468;DHT22;5281;48.878;9.394;2024-03-02T14:22:26;18.00;94.00
10468;DHT22;5281;48.878;9.394;2024-03-02T14:24:53;18.00;94.00
10468;DHT22;5281;48.878;9.394;2024-03-02T14:27:20;18.10;94.00
10468;DHT22;5281;48.878;9.394;2024-03-02T14:29:48;18.10;94.00
10468;DHT22;5281;48.878;9.394;2024-03-02T14:32:15;18.20;94.10
10468;DHT22;5281;48.878;9.394;2024-03-02T14:34:41;18.20;94.40
10468;DHT22;5281;48.878;9.394;2024-03-02T14:37:09;18.20;93.70
10468;DHT22;5281;48.878;9.394;2024-03-02T14:39:36;18.20;93.80
10468;DHT22;5281;48.878;9.394;2024-03-02T14:42:03;18.20;93.60
10468;DHT22;5281;48.878;9.394;2024-03-02T14:44:30;18.10;93.70
10468;DHT22;5281;48.878;9.394;2024-03-02T14:46:58;18.00;94.00
10468;DHT22;5281;48.878;9.394;2024-03-02T14:49:25;18.00;93.60
10468;DHT22;5281;48.878;9.394;2024-03-02T14:51:52;18.10;93.50
10468;DHT22;5281;48.878;9.394;2024-03-02T14:54:18;18.10;93.40
10468;DHT22;5281;48.878;9.394;2024-03-02T14:56:45;18.10;94.00
10468;DHT22;5281;48.878;9.394;2024-03-02T14:59:12;18.10;93.60
10468;DHT22;5281;48.878;9.394;2024-03-02T15:01:39;18.20;93.70
10468;DHT22;5281;48.878;9.394;2024-03-02T15:04:07;18.20;94.10
10468;DHT22;5281;48.878;9.394;2024-03-02T15:06:33;18.20;94.40
10468;DHT22;5281;48.878;9.394;2024-03-02T15:09:00;18.10;94.40
10468;DHT22;5281;48.878;9.394;2024-03-02T15:11:27;17.90;94.80
10468;DHT22;5281;48.878;9.394;2024-03-02T15:13:55;17.70;94.80
10468;DHT22;5281;48.878;9.394;2024-03-02T15:16:22;17.60;94.60
10468;DHT22;5281;48.878;9.394;2024-03-02T15:18:48;17.50;94.50
10468;DHT22;5281;48.878;9.394;2024-03-02T15:21:16;17.40;94.70
10468;DHT22;5281;48.878;9.394;2024-03-02T15:23:44;17.30;94.60
10468;DHT22;5281;48.878;9.394;2024-03-02T15:26:11;17.40;94.60
10468;DHT22;5281;48.878;9.394;2024-03-02T15:28:37;17.30;94.30
10468;DHT22;5281;48.878;9.394;2024-03-02T15:31:04;17.20;94.60
10468;DHT22;5281;48.878;9.394;2024-03-02T15:33:31;17.00;95.00
10468;DHT22;5281;48.878;9.394;2024-03-02T15:35:58;17.00;95.10
10468;DHT22;5281;48.878;9.394;2024-03-02T15:38:27;16.90;94.60
10468;DHT22;5281;48.878;9.394;2024-03-02T15:40:54;16.80;95.10
10468;DHT22;5281;48.878;9.394;2024-03-02T15:43:21;16.70;95.70
10468;DHT22;5281;48.878;9.394;2024-03-02T15:45:49;16.50;96.10
10468;DHT22;5281;48.878;9.394;2024-03-02T15:48:16;16.50;96.60
10468;DHT22;5281;48.878;9.394;2024-03-02T15:50:42;16.40;97.30
10468;DHT22;5281;48.878;9.394;2024-03-02T15:53:09;16.20;97.90
10468;DHT22;5281;48.878;9.394;2024-03-02T15:55:37;16.10;98.20
10468;DHT22;5281;48.878;9.394;2024-03-02T15:58:04;16.00;98.40
10468;DHT22;5281;48.878;9.394;2024-03-02T16:00:31;15.90;98.60